Strona główna
METAR-TAF:

METAR-TAF

Lotnisko :

Port lotniczy Odessa

Odessa, Ukraina

Szerokość geograficzna: 46-26N, Długość geograficzna: 030-46E, wysokość: 42 m

Aktualna obserwacja pogody

Raport powstał 15 minut temu, godzina 00:00 UTC
Cisza
Temperatura 15°C
Wilgotność 63%
Ciśnienie 1018 hPa
Widzialność 10 km lub więcej
Brak chmur poniżej 1500 m i brak chmur cumulonimbus

METAR: UKOO 250000Z 00000MPS CAVOK 15/08 Q1018 R34/090060 NOSIG

czas: 03:15 (00:15 UTC)

Prognoza

Raport powstał 1 godzina i 10 minut temu, godzina 23:05 UTC
Prognoza ważna od 25 godzina 00 UTC do 25 godzina 24 UTC
Wiatr 6 kt od północny wschód
Widzialność: 6000 m
Rozproszone chmury na wysokości 2000 ft
Rozproszone chmury na wysokości 2500 ft, Cumulonimbus.

TAF: UKOO 242305Z 2500/2524 05003MPS 6000 SCT020 SCT025CB

Obserwacja i prognoza pogody dla ponad 4000 lotnisk (raport METAR i TAF).

Dostępne stacje oznaczono żółtymi i czerwonymi punktami na mapie.

Najedź kursorem aby zobaczyć nazwę stacji.

Kliknij aby zobaczyć obserwacje i prognozy pogody.

Aby zmienić mapę: kliknij na zielony przycisk z czarnym krzyżykiem, aby powiększyć; na zielony przycisk z myślnikiem, aby pomniejszyć; na zielone strzałki, aby przejść do map sąsiednich.


METAR-TAF: